sensor_id;sensor_type;location;lat;lon;timestamp;P1;durP1;ratioP1;P2;durP2;ratioP2
29294;SDS011;16305;48.566;8.846;2022-12-22T00:01:35;5.47;;;4.47;;
29294;SDS011;16305;48.566;8.846;2022-12-22T00:04:21;8.17;;;4.20;;
29294;SDS011;16305;48.566;8.846;2022-12-22T00:07:05;10.03;;;4.43;;
29294;SDS011;16305;48.566;8.846;2022-12-22T00:09:49;5.33;;;3.97;;
29294;SDS011;16305;48.566;8.846;2022-12-22T00:12:33;6.10;;;4.33;;
29294;SDS011;16305;48.566;8.846;2022-12-22T00:15:18;5.00;;;3.80;;
29294;SDS011;16305;48.566;8.846;2022-12-22T00:18:03;8.33;;;5.27;;
29294;SDS011;16305;48.566;8.846;2022-12-22T00:20:47;9.90;;;6.10;;
29294;SDS011;16305;48.566;8.846;2022-12-22T00:23:31;7.30;;;6.17;;
29294;SDS011;16305;48.566;8.846;2022-12-22T00:26:15;8.83;;;7.00;;
29294;SDS011;16305;48.566;8.846;2022-12-22T00:29:01;8.17;;;6.83;;
29294;SDS011;16305;48.566;8.846;2022-12-22T00:31:45;8.30;;;7.20;;
29294;SDS011;16305;48.566;8.846;2022-12-22T00:34:30;9.17;;;7.77;;
29294;SDS011;16305;48.566;8.846;2022-12-22T00:37:28;8.30;;;7.13;;
29294;SDS011;16305;48.566;8.846;2022-12-22T00:40:15;12.43;;;7.77;;
29294;SDS011;16305;48.566;8.846;2022-12-22T00:43:01;9.73;;;6.97;;
29294;SDS011;16305;48.566;8.846;2022-12-22T00:45:45;9.37;;;7.40;;
29294;SDS011;16305;48.566;8.846;2022-12-22T00:48:29;11.97;;;7.50;;
29294;SDS011;16305;48.566;8.846;2022-12-22T00:51:14;9.37;;;7.37;;
29294;SDS011;16305;48.566;8.846;2022-12-22T00:53:58;9.50;;;7.60;;
29294;SDS011;16305;48.566;8.846;2022-12-22T00:56:42;8.87;;;7.17;;
29294;SDS011;16305;48.566;8.846;2022-12-22T00:59:27;9.03;;;7.53;;
29294;SDS011;16305;48.566;8.846;2022-12-22T01:02:11;9.57;;;7.50;;
29294;SDS011;16305;48.566;8.846;2022-12-22T01:04:55;11.17;;;8.53;;
29294;SDS011;16305;48.566;8.846;2022-12-22T01:07:39;10.30;;;7.27;;
29294;SDS011;16305;48.566;8.846;2022-12-22T01:10:24;9.33;;;7.23;;
29294;SDS011;16305;48.566;8.846;2022-12-22T01:13:15;10.60;;;7.30;;
29294;SDS011;16305;48.566;8.846;2022-12-22T01:15:59;7.80;;;6.57;;
29294;SDS011;16305;48.566;8.846;2022-12-22T01:18:44;9.87;;;6.83;;
29294;SDS011;16305;48.566;8.846;2022-12-22T01:21:28;10.57;;;6.90;;
29294;SDS011;16305;48.566;8.846;2022-12-22T01:24:12;9.57;;;7.03;;
29294;SDS011;16305;48.566;8.846;2022-12-22T01:26:58;10.23;;;7.37;;
29294;SDS011;16305;48.566;8.846;2022-12-22T01:29:42;10.83;;;8.07;;
29294;SDS011;16305;48.566;8.846;2022-12-22T01:32:26;9.77;;;7.63;;
29294;SDS011;16305;48.566;8.846;2022-12-22T01:35:20;12.90;;;8.83;;
29294;SDS011;16305;48.566;8.846;2022-12-22T01:38:09;12.83;;;9.17;;
29294;SDS011;16305;48.566;8.846;2022-12-22T01:40:54;11.60;;;9.10;;
29294;SDS011;16305;48.566;8.846;2022-12-22T01:43:40;14.67;;;10.20;;
29294;SDS011;16305;48.566;8.846;2022-12-22T01:46:26;21.17;;;12.57;;
29294;SDS011;16305;48.566;8.846;2022-12-22T01:49:13;13.20;;;10.60;;
29294;SDS011;16305;48.566;8.846;2022-12-22T01:52:12;12.53;;;10.37;;
29294;SDS011;16305;48.566;8.846;2022-12-22T01:55:01;14.33;;;8.80;;
29294;SDS011;16305;48.566;8.846;2022-12-22T01:57:48;10.53;;;8.10;;
29294;SDS011;16305;48.566;8.846;2022-12-22T02:00:32;10.13;;;8.07;;
29294;SDS011;16305;48.566;8.846;2022-12-22T02:03:16;9.20;;;6.77;;
29294;SDS011;16305;48.566;8.846;2022-12-22T02:08:54;10.80;;;6.80;;
29294;SDS011;16305;48.566;8.846;2022-12-22T02:12:09;9.37;;;7.40;;
29294;SDS011;16305;48.566;8.846;2022-12-22T02:15:12;8.47;;;7.20;;
29294;SDS011;16305;48.566;8.846;2022-12-22T02:21:14;8.23;;;6.67;;
29294;SDS011;16305;48.566;8.846;2022-12-22T02:26:51;11.73;;;6.77;;
29294;SDS011;16305;48.566;8.846;2022-12-22T02:29:53;9.17;;;7.20;;
29294;SDS011;16305;48.566;8.846;2022-12-22T02:32:40;10.27;;;6.43;;
29294;SDS011;16305;48.566;8.846;2022-12-22T02:35:26;8.63;;;6.57;;
29294;SDS011;16305;48.566;8.846;2022-12-22T02:38:26;8.93;;;5.83;;
29294;SDS011;16305;48.566;8.846;2022-12-22T02:41:26;9.43;;;6.07;;
29294;SDS011;16305;48.566;8.846;2022-12-22T02:44:54;8.37;;;6.20;;
29294;SDS011;16305;48.566;8.846;2022-12-22T02:48:04;8.03;;;5.87;;
29294;SDS011;16305;48.566;8.846;2022-12-22T02:50:56;7.43;;;5.93;;
29294;SDS011;16305;48.566;8.846;2022-12-22T02:53:47;7.37;;;5.87;;
29294;SDS011;16305;48.566;8.846;2022-12-22T02:56:31;6.57;;;4.77;;
29294;SDS011;16305;48.566;8.846;2022-12-22T02:59:15;6.33;;;4.50;;
29294;SDS011;16305;48.566;8.846;2022-12-22T03:01:59;5.93;;;4.20;;
29294;SDS011;16305;48.566;8.846;2022-12-22T03:04:43;4.30;;;3.53;;
29294;SDS011;16305;48.566;8.846;2022-12-22T03:07:27;4.27;;;3.07;;
29294;SDS011;16305;48.566;8.846;2022-12-22T03:10:11;3.20;;;2.23;;
29294;SDS011;16305;48.566;8.846;2022-12-22T03:12:59;2.90;;;2.20;;
29294;SDS011;16305;48.566;8.846;2022-12-22T03:15:43;3.07;;;1.73;;
29294;SDS011;16305;48.566;8.846;2022-12-22T03:18:27;3.60;;;1.57;;
29294;SDS011;16305;48.566;8.846;2022-12-22T03:21:11;3.53;;;1.80;;
29294;SDS011;16305;48.566;8.846;2022-12-22T03:23:55;1.87;;;1.50;;
29294;SDS011;16305;48.566;8.846;2022-12-22T03:26:39;2.50;;;1.30;;
29294;SDS011;16305;48.566;8.846;2022-12-22T03:29:05;2.63;;;1.20;;
29294;SDS011;16305;48.566;8.846;2022-12-22T03:31:30;3.30;;;1.70;;
29294;SDS011;16305;48.566;8.846;2022-12-22T03:33:56;2.40;;;1.50;;
29294;SDS011;16305;48.566;8.846;2022-12-22T03:36:22;1.73;;;1.30;;
29294;SDS011;16305;48.566;8.846;2022-12-22T03:38:47;2.90;;;1.10;;
29294;SDS011;16305;48.566;8.846;2022-12-22T03:41:13;1.47;;;1.07;;
29294;SDS011;16305;48.566;8.846;2022-12-22T03:43:58;2.77;;;1.20;;
29294;SDS011;16305;48.566;8.846;2022-12-22T03:46:42;2.00;;;1.10;;
29294;SDS011;16305;48.566;8.846;2022-12-22T03:49:08;2.10;;;1.00;;
29294;SDS011;16305;48.566;8.846;2022-12-22T03:51:34;5.30;;;1.30;;
29294;SDS011;16305;48.566;8.846;2022-12-22T03:54:01;3.00;;;1.00;;
29294;SDS011;16305;48.566;8.846;2022-12-22T03:56:27;1.10;;;1.00;;
29294;SDS011;16305;48.566;8.846;2022-12-22T03:58:53;2.77;;;1.07;;
29294;SDS011;16305;48.566;8.846;2022-12-22T04:01:19;1.60;;;1.00;;
29294;SDS011;16305;48.566;8.846;2022-12-22T04:03:44;1.77;;;1.00;;
29294;SDS011;16305;48.566;8.846;2022-12-22T04:06:10;2.03;;;1.10;;
29294;SDS011;16305;48.566;8.846;2022-12-22T04:08:35;3.03;;;1.10;;
29294;SDS011;16305;48.566;8.846;2022-12-22T04:11:01;1.57;;;1.10;;
29294;SDS011;16305;48.566;8.846;2022-12-22T04:13:45;2.27;;;1.30;;
29294;SDS011;16305;48.566;8.846;2022-12-22T04:16:11;3.40;;;1.10;;
29294;SDS011;16305;48.566;8.846;2022-12-22T04:18:36;2.40;;;1.13;;
29294;SDS011;16305;48.566;8.846;2022-12-22T04:21:02;3.20;;;1.20;;
29294;SDS011;16305;48.566;8.846;2022-12-22T04:23:27;1.93;;;1.30;;
29294;SDS011;16305;48.566;8.846;2022-12-22T04:25:53;2.67;;;1.50;;
29294;SDS011;16305;48.566;8.846;2022-12-22T04:28:18;2.00;;;1.40;;
29294;SDS011;16305;48.566;8.846;2022-12-22T04:30:44;2.17;;;0.97;;
29294;SDS011;16305;48.566;8.846;2022-12-22T04:33:09;4.00;;;1.30;;
29294;SDS011;16305;48.566;8.846;2022-12-22T04:35:35;4.20;;;1.47;;
29294;SDS011;16305;48.566;8.846;2022-12-22T04:38:00;3.20;;;1.10;;
29294;SDS011;16305;48.566;8.846;2022-12-22T04:40:26;3.73;;;1.53;;
29294;SDS011;16305;48.566;8.846;2022-12-22T04:42:51;3.80;;;1.40;;
29294;SDS011;16305;48.566;8.846;2022-12-22T04:45:17;6.00;;;1.50;;
29294;SDS011;16305;48.566;8.846;2022-12-22T04:47:42;1.47;;;1.20;;
29294;SDS011;16305;48.566;8.846;2022-12-22T04:50:08;4.23;;;1.40;;
29294;SDS011;16305;48.566;8.846;2022-12-22T04:52:34;6.73;;;1.43;;
29294;SDS011;16305;48.566;8.846;2022-12-22T04:54:59;2.03;;;1.40;;
29294;SDS011;16305;48.566;8.846;2022-12-22T04:57:25;3.47;;;1.20;;
29294;SDS011;16305;48.566;8.846;2022-12-22T04:59:50;4.77;;;1.33;;
29294;SDS011;16305;48.566;8.846;2022-12-22T05:02:16;2.03;;;1.30;;
29294;SDS011;16305;48.566;8.846;2022-12-22T05:04:41;1.90;;;1.10;;
29294;SDS011;16305;48.566;8.846;2022-12-22T05:07:07;7.83;;;1.40;;
29294;SDS011;16305;48.566;8.846;2022-12-22T05:09:33;4.67;;;1.80;;
29294;SDS011;16305;48.566;8.846;2022-12-22T05:11:58;6.67;;;2.07;;
29294;SDS011;16305;48.566;8.846;2022-12-22T05:14:24;4.83;;;2.40;;
29294;SDS011;16305;48.566;8.846;2022-12-22T05:16:49;5.80;;;2.20;;
29294;SDS011;16305;48.566;8.846;2022-12-22T05:19:15;7.67;;;2.47;;
29294;SDS011;16305;48.566;8.846;2022-12-22T05:21:41;6.67;;;2.70;;
29294;SDS011;16305;48.566;8.846;2022-12-22T05:24:06;6.60;;;1.97;;
29294;SDS011;16305;48.566;8.846;2022-12-22T05:26:32;8.13;;;2.20;;
29294;SDS011;16305;48.566;8.846;2022-12-22T05:28:57;6.60;;;2.43;;
29294;SDS011;16305;48.566;8.846;2022-12-22T05:31:24;4.93;;;2.30;;
29294;SDS011;16305;48.566;8.846;2022-12-22T05:33:50;4.03;;;1.50;;
29294;SDS011;16305;48.566;8.846;2022-12-22T05:36:15;5.23;;;1.70;;
29294;SDS011;16305;48.566;8.846;2022-12-22T05:38:41;4.47;;;1.30;;
29294;SDS011;16305;48.566;8.846;2022-12-22T05:41:08;3.87;;;1.50;;
29294;SDS011;16305;48.566;8.846;2022-12-22T05:43:34;6.93;;;1.30;;
29294;SDS011;16305;48.566;8.846;2022-12-22T05:46:04;5.50;;;2.33;;
29294;SDS011;16305;48.566;8.846;2022-12-22T05:48:32;7.23;;;1.40;;
29294;SDS011;16305;48.566;8.846;2022-12-22T05:50:57;5.90;;;1.40;;
29294;SDS011;16305;48.566;8.846;2022-12-22T05:53:23;5.90;;;1.50;;
29294;SDS011;16305;48.566;8.846;2022-12-22T05:55:48;6.17;;;1.87;;
29294;SDS011;16305;48.566;8.846;2022-12-22T05:58:14;6.67;;;1.80;;
29294;SDS011;16305;48.566;8.846;2022-12-22T06:00:40;8.90;;;1.33;;
29294;SDS011;16305;48.566;8.846;2022-12-22T06:03:05;7.53;;;1.40;;
29294;SDS011;16305;48.566;8.846;2022-12-22T06:05:31;5.87;;;1.40;;
29294;SDS011;16305;48.566;8.846;2022-12-22T06:07:56;8.80;;;1.80;;
29294;SDS011;16305;48.566;8.846;2022-12-22T06:10:22;6.07;;;1.30;;
29294;SDS011;16305;48.566;8.846;2022-12-22T06:12:47;5.03;;;1.50;;
29294;SDS011;16305;48.566;8.846;2022-12-22T06:15:13;5.93;;;1.83;;
29294;SDS011;16305;48.566;8.846;2022-12-22T06:17:39;5.83;;;1.40;;
29294;SDS011;16305;48.566;8.846;2022-12-22T06:20:06;5.57;;;1.50;;
29294;SDS011;16305;48.566;8.846;2022-12-22T06:22:32;5.40;;;1.40;;
29294;SDS011;16305;48.566;8.846;2022-12-22T06:24:58;6.43;;;1.50;;
29294;SDS011;16305;48.566;8.846;2022-12-22T06:27:24;6.67;;;1.57;;
29294;SDS011;16305;48.566;8.846;2022-12-22T06:29:50;8.73;;;1.97;;
29294;SDS011;16305;48.566;8.846;2022-12-22T06:32:15;12.13;;;1.97;;
29294;SDS011;16305;48.566;8.846;2022-12-22T06:34:41;7.50;;;1.50;;
29294;SDS011;16305;48.566;8.846;2022-12-22T06:37:06;5.37;;;1.80;;
29294;SDS011;16305;48.566;8.846;2022-12-22T06:39:32;8.33;;;1.90;;
29294;SDS011;16305;48.566;8.846;2022-12-22T06:41:57;9.27;;;1.97;;
29294;SDS011;16305;48.566;8.846;2022-12-22T06:44:42;12.20;;;2.20;;
29294;SDS011;16305;48.566;8.846;2022-12-22T06:47:07;11.77;;;2.80;;
29294;SDS011;16305;48.566;8.846;2022-12-22T06:49:33;7.70;;;1.80;;
29294;SDS011;16305;48.566;8.846;2022-12-22T06:51:58;7.10;;;1.60;;
29294;SDS011;16305;48.566;8.846;2022-12-22T06:54:24;5.43;;;1.83;;
29294;SDS011;16305;48.566;8.846;2022-12-22T06:56:49;5.83;;;2.00;;
29294;SDS011;16305;48.566;8.846;2022-12-22T06:59:15;5.60;;;1.40;;
29294;SDS011;16305;48.566;8.846;2022-12-22T07:01:40;10.63;;;2.13;;
29294;SDS011;16305;48.566;8.846;2022-12-22T07:04:06;7.30;;;1.60;;
29294;SDS011;16305;48.566;8.846;2022-12-22T07:06:33;9.27;;;1.60;;
29294;SDS011;16305;48.566;8.846;2022-12-22T07:08:59;9.13;;;1.73;;
29294;SDS011;16305;48.566;8.846;2022-12-22T07:11:24;6.93;;;1.33;;
29294;SDS011;16305;48.566;8.846;2022-12-22T07:13:50;5.30;;;1.53;;
29294;SDS011;16305;48.566;8.846;2022-12-22T07:16:15;7.43;;;1.63;;
29294;SDS011;16305;48.566;8.846;2022-12-22T07:18:41;8.53;;;1.67;;
29294;SDS011;16305;48.566;8.846;2022-12-22T07:21:09;11.03;;;1.70;;
29294;SDS011;16305;48.566;8.846;2022-12-22T07:23:36;7.47;;;1.73;;
29294;SDS011;16305;48.566;8.846;2022-12-22T07:26:03;6.33;;;1.60;;
29294;SDS011;16305;48.566;8.846;2022-12-22T07:28:33;9.37;;;1.90;;
29294;SDS011;16305;48.566;8.846;2022-12-22T07:31:00;9.20;;;1.97;;
29294;SDS011;16305;48.566;8.846;2022-12-22T07:33:26;9.97;;;2.30;;
29294;SDS011;16305;48.566;8.846;2022-12-22T07:36:09;9.90;;;2.30;;
29294;SDS011;16305;48.566;8.846;2022-12-22T07:38:37;8.37;;;1.93;;
29294;SDS011;16305;48.566;8.846;2022-12-22T07:41:05;7.10;;;1.53;;
29294;SDS011;16305;48.566;8.846;2022-12-22T07:43:52;11.33;;;2.80;;
29294;SDS011;16305;48.566;8.846;2022-12-22T07:46:19;9.60;;;2.10;;
29294;SDS011;16305;48.566;8.846;2022-12-22T07:48:45;9.97;;;4.70;;
29294;SDS011;16305;48.566;8.846;2022-12-22T07:51:32;8.77;;;3.77;;
29294;SDS011;16305;48.566;8.846;2022-12-22T07:53:59;11.63;;;4.37;;
29294;SDS011;16305;48.566;8.846;2022-12-22T07:56:24;13.33;;;3.60;;
29294;SDS011;16305;48.566;8.846;2022-12-22T07:58:50;9.83;;;2.77;;
29294;SDS011;16305;48.566;8.846;2022-12-22T08:01:15;12.20;;;3.37;;
29294;SDS011;16305;48.566;8.846;2022-12-22T08:03:41;10.30;;;2.20;;
29294;SDS011;16305;48.566;8.846;2022-12-22T08:06:07;10.47;;;2.40;;
29294;SDS011;16305;48.566;8.846;2022-12-22T08:08:33;7.30;;;1.83;;
29294;SDS011;16305;48.566;8.846;2022-12-22T08:11:01;6.27;;;1.90;;
29294;SDS011;16305;48.566;8.846;2022-12-22T08:13:27;10.07;;;2.07;;
29294;SDS011;16305;48.566;8.846;2022-12-22T08:15:53;6.90;;;2.00;;
29294;SDS011;16305;48.566;8.846;2022-12-22T08:18:18;5.70;;;2.33;;
29294;SDS011;16305;48.566;8.846;2022-12-22T08:20:51;8.93;;;2.60;;
29294;SDS011;16305;48.566;8.846;2022-12-22T08:23:17;6.50;;;2.17;;
29294;SDS011;16305;48.566;8.846;2022-12-22T08:25:43;8.50;;;2.53;;
29294;SDS011;16305;48.566;8.846;2022-12-22T08:28:10;10.07;;;3.63;;
29294;SDS011;16305;48.566;8.846;2022-12-22T08:30:36;11.33;;;2.73;;
29294;SDS011;16305;48.566;8.846;2022-12-22T08:33:02;11.73;;;2.60;;
29294;SDS011;16305;48.566;8.846;2022-12-22T08:35:28;7.43;;;2.77;;
29294;SDS011;16305;48.566;8.846;2022-12-22T08:37:53;7.67;;;2.20;;
29294;SDS011;16305;48.566;8.846;2022-12-22T08:40:20;14.47;;;4.57;;
29294;SDS011;16305;48.566;8.846;2022-12-22T08:42:49;12.90;;;5.13;;
29294;SDS011;16305;48.566;8.846;2022-12-22T08:45:17;11.37;;;3.93;;
29294;SDS011;16305;48.566;8.846;2022-12-22T08:47:43;10.53;;;2.37;;
29294;SDS011;16305;48.566;8.846;2022-12-22T08:50:09;7.90;;;1.83;;
29294;SDS011;16305;48.566;8.846;2022-12-22T08:52:34;6.73;;;2.33;;
29294;SDS011;16305;48.566;8.846;2022-12-22T08:55:00;5.50;;;1.90;;
29294;SDS011;16305;48.566;8.846;2022-12-22T08:57:25;10.07;;;2.63;;
29294;SDS011;16305;48.566;8.846;2022-12-22T08:59:51;8.20;;;1.80;;
29294;SDS011;16305;48.566;8.846;2022-12-22T09:02:16;13.53;;;1.90;;
29294;SDS011;16305;48.566;8.846;2022-12-22T09:04:42;12.43;;;2.97;;
29294;SDS011;16305;48.566;8.846;2022-12-22T09:07:07;7.47;;;1.37;;
29294;SDS011;16305;48.566;8.846;2022-12-22T09:09:33;7.67;;;1.40;;
29294;SDS011;16305;48.566;8.846;2022-12-22T09:11:59;7.60;;;1.60;;
29294;SDS011;16305;48.566;8.846;2022-12-22T09:14:26;7.20;;;1.80;;
29294;SDS011;16305;48.566;8.846;2022-12-22T09:16:52;6.30;;;1.50;;
29294;SDS011;16305;48.566;8.846;2022-12-22T09:19:18;6.50;;;1.80;;
29294;SDS011;16305;48.566;8.846;2022-12-22T09:21:44;8.47;;;1.90;;
29294;SDS011;16305;48.566;8.846;2022-12-22T09:24:10;5.57;;;1.90;;
29294;SDS011;16305;48.566;8.846;2022-12-22T09:26:36;7.47;;;2.67;;
29294;SDS011;16305;48.566;8.846;2022-12-22T09:29:01;8.73;;;2.40;;
29294;SDS011;16305;48.566;8.846;2022-12-22T09:31:28;10.33;;;2.30;;
29294;SDS011;16305;48.566;8.846;2022-12-22T09:33:53;7.10;;;2.40;;
29294;SDS011;16305;48.566;8.846;2022-12-22T09:36:21;11.60;;;2.07;;
29294;SDS011;16305;48.566;8.846;2022-12-22T09:38:48;9.33;;;2.40;;
29294;SDS011;16305;48.566;8.846;2022-12-22T09:41:18;6.30;;;1.80;;
29294;SDS011;16305;48.566;8.846;2022-12-22T09:43:44;8.80;;;1.53;;
29294;SDS011;16305;48.566;8.846;2022-12-22T09:46:13;4.93;;;1.47;;
29294;SDS011;16305;48.566;8.846;2022-12-22T09:48:49;8.23;;;1.90;;
29294;SDS011;16305;48.566;8.846;2022-12-22T09:51:15;10.13;;;1.67;;
29294;SDS011;16305;48.566;8.846;2022-12-22T09:53:42;5.50;;;2.40;;
29294;SDS011;16305;48.566;8.846;2022-12-22T09:56:11;4.87;;;1.70;;
29294;SDS011;16305;48.566;8.846;2022-12-22T09:58:39;5.37;;;1.50;;
29294;SDS011;16305;48.566;8.846;2022-12-22T10:01:14;5.60;;;1.63;;
29294;SDS011;16305;48.566;8.846;2022-12-22T10:09:22;4.83;;;1.30;;
29294;SDS011;16305;48.566;8.846;2022-12-22T10:11:54;7.37;;;1.87;;
29294;SDS011;16305;48.566;8.846;2022-12-22T10:14:26;5.73;;;1.97;;
29294;SDS011;16305;48.566;8.846;2022-12-22T10:17:19;5.53;;;2.10;;
29294;SDS011;16305;48.566;8.846;2022-12-22T10:20:06;7.53;;;1.80;;
29294;SDS011;16305;48.566;8.846;2022-12-22T10:25:38;5.07;;;1.53;;
29294;SDS011;16305;48.566;8.846;2022-12-22T10:28:14;7.10;;;2.27;;
29294;SDS011;16305;48.566;8.846;2022-12-22T10:30:44;9.33;;;2.23;;
29294;SDS011;16305;48.566;8.846;2022-12-22T10:33:11;10.30;;;5.33;;
29294;SDS011;16305;48.566;8.846;2022-12-22T10:38:25;11.30;;;5.30;;
29294;SDS011;16305;48.566;8.846;2022-12-22T10:41:07;8.27;;;3.90;;
29294;SDS011;16305;48.566;8.846;2022-12-22T10:43:39;6.97;;;3.50;;
29294;SDS011;16305;48.566;8.846;2022-12-22T10:46:15;6.63;;;2.93;;
29294;SDS011;16305;48.566;8.846;2022-12-22T10:48:41;8.97;;;2.70;;
29294;SDS011;16305;48.566;8.846;2022-12-22T10:51:11;7.00;;;2.20;;
29294;SDS011;16305;48.566;8.846;2022-12-22T10:53:43;3.63;;;1.40;;
29294;SDS011;16305;48.566;8.846;2022-12-22T10:56:28;8.20;;;1.60;;
29294;SDS011;16305;48.566;8.846;2022-12-22T10:58:56;8.03;;;2.03;;
29294;SDS011;16305;48.566;8.846;2022-12-22T11:01:37;5.00;;;1.30;;
29294;SDS011;16305;48.566;8.846;2022-12-22T11:06:47;6.57;;;1.43;;
29294;SDS011;16305;48.566;8.846;2022-12-22T11:09:13;5.63;;;1.60;;
29294;SDS011;16305;48.566;8.846;2022-12-22T11:11:49;5.33;;;1.57;;
29294;SDS011;16305;48.566;8.846;2022-12-22T11:17:22;5.47;;;1.30;;
29294;SDS011;16305;48.566;8.846;2022-12-22T11:22:59;6.93;;;1.60;;
29294;SDS011;16305;48.566;8.846;2022-12-22T11:25:47;3.83;;;1.03;;
29294;SDS011;16305;48.566;8.846;2022-12-22T11:37:25;2.60;;;1.03;;
29294;SDS011;16305;48.566;8.846;2022-12-22T11:45:56;5.77;;;1.50;;
29294;SDS011;16305;48.566;8.846;2022-12-22T12:00:08;5.63;;;3.23;;
29294;SDS011;16305;48.566;8.846;2022-12-22T12:05:39;1.90;;;0.77;;
29294;SDS011;16305;48.566;8.846;2022-12-22T12:14:16;2.53;;;0.80;;
29294;SDS011;16305;48.566;8.846;2022-12-22T12:16:50;2.73;;;0.70;;
29294;SDS011;16305;48.566;8.846;2022-12-22T12:22:12;2.53;;;0.50;;
29294;SDS011;16305;48.566;8.846;2022-12-22T12:24:59;1.97;;;0.53;;
29294;SDS011;16305;48.566;8.846;2022-12-22T12:27:48;2.23;;;0.50;;
29294;SDS011;16305;48.566;8.846;2022-12-22T12:30:39;2.07;;;0.50;;
29294;SDS011;16305;48.566;8.846;2022-12-22T12:36:13;2.10;;;0.70;;
29294;SDS011;16305;48.566;8.846;2022-12-22T12:39:22;2.47;;;0.80;;
29294;SDS011;16305;48.566;8.846;2022-12-22T12:42:10;3.33;;;0.80;;
29294;SDS011;16305;48.566;8.846;2022-12-22T12:44:41;4.03;;;0.80;;
29294;SDS011;16305;48.566;8.846;2022-12-22T12:47:21;5.73;;;1.23;;
29294;SDS011;16305;48.566;8.846;2022-12-22T12:52:52;4.80;;;1.40;;
29294;SDS011;16305;48.566;8.846;2022-12-22T12:57:53;3.60;;;1.03;;
29294;SDS011;16305;48.566;8.846;2022-12-22T13:03:11;3.83;;;2.00;;
29294;SDS011;16305;48.566;8.846;2022-12-22T13:05:52;10.90;;;5.13;;
29294;SDS011;16305;48.566;8.846;2022-12-22T13:08:26;8.90;;;2.63;;
29294;SDS011;16305;48.566;8.846;2022-12-22T13:15:47;5.83;;;1.90;;
29294;SDS011;16305;48.566;8.846;2022-12-22T13:18:36;3.13;;;2.43;;
29294;SDS011;16305;48.566;8.846;2022-12-22T13:23:41;6.93;;;2.77;;
29294;SDS011;16305;48.566;8.846;2022-12-22T13:26:13;6.67;;;2.30;;
29294;SDS011;16305;48.566;8.846;2022-12-22T13:28:41;4.47;;;1.67;;
29294;SDS011;16305;48.566;8.846;2022-12-22T13:31:13;4.90;;;2.10;;
29294;SDS011;16305;48.566;8.846;2022-12-22T13:33:44;3.03;;;1.30;;
29294;SDS011;16305;48.566;8.846;2022-12-22T13:36:15;3.33;;;1.10;;
29294;SDS011;16305;48.566;8.846;2022-12-22T13:38:45;3.63;;;1.30;;
29294;SDS011;16305;48.566;8.846;2022-12-22T13:41:20;6.13;;;1.33;;
29294;SDS011;16305;48.566;8.846;2022-12-22T13:43:49;5.63;;;2.53;;
29294;SDS011;16305;48.566;8.846;2022-12-22T13:46:18;5.50;;;2.40;;
29294;SDS011;16305;48.566;8.846;2022-12-22T13:48:45;3.33;;;1.53;;
29294;SDS011;16305;48.566;8.846;2022-12-22T13:51:16;4.83;;;1.73;;
29294;SDS011;16305;48.566;8.846;2022-12-22T13:53:46;3.93;;;1.50;;
29294;SDS011;16305;48.566;8.846;2022-12-22T13:56:17;4.27;;;1.47;;
29294;SDS011;16305;48.566;8.846;2022-12-22T13:58:52;8.20;;;1.93;;
29294;SDS011;16305;48.566;8.846;2022-12-22T14:01:23;3.57;;;1.20;;
29294;SDS011;16305;48.566;8.846;2022-12-22T14:03:50;4.30;;;1.53;;
29294;SDS011;16305;48.566;8.846;2022-12-22T14:06:33;5.47;;;1.40;;
29294;SDS011;16305;48.566;8.846;2022-12-22T14:09:08;5.90;;;1.83;;
29294;SDS011;16305;48.566;8.846;2022-12-22T14:11:44;7.93;;;1.93;;
29294;SDS011;16305;48.566;8.846;2022-12-22T14:14:14;5.07;;;1.93;;
29294;SDS011;16305;48.566;8.846;2022-12-22T14:16:44;6.90;;;1.37;;
29294;SDS011;16305;48.566;8.846;2022-12-22T14:19:12;7.80;;;1.53;;
29294;SDS011;16305;48.566;8.846;2022-12-22T14:21:39;7.93;;;2.00;;
29294;SDS011;16305;48.566;8.846;2022-12-22T14:24:09;7.70;;;1.60;;
29294;SDS011;16305;48.566;8.846;2022-12-22T14:26:40;9.53;;;1.93;;
29294;SDS011;16305;48.566;8.846;2022-12-22T14:29:07;8.30;;;2.60;;
29294;SDS011;16305;48.566;8.846;2022-12-22T14:34:36;9.27;;;3.03;;
29294;SDS011;16305;48.566;8.846;2022-12-22T14:37:02;13.07;;;3.70;;
29294;SDS011;16305;48.566;8.846;2022-12-22T14:39:28;10.80;;;3.10;;
29294;SDS011;16305;48.566;8.846;2022-12-22T14:42:00;11.53;;;2.20;;
29294;SDS011;16305;48.566;8.846;2022-12-22T14:44:28;7.37;;;2.03;;
29294;SDS011;16305;48.566;8.846;2022-12-22T14:55:19;6.50;;;2.03;;
29294;SDS011;16305;48.566;8.846;2022-12-22T14:57:52;8.00;;;2.40;;
29294;SDS011;16305;48.566;8.846;2022-12-22T15:02:51;6.43;;;2.00;;
29294;SDS011;16305;48.566;8.846;2022-12-22T15:05:26;9.83;;;1.97;;
29294;SDS011;16305;48.566;8.846;2022-12-22T15:07:54;10.60;;;2.20;;
29294;SDS011;16305;48.566;8.846;2022-12-22T15:10:21;9.63;;;2.20;;
29294;SDS011;16305;48.566;8.846;2022-12-22T15:12:48;15.47;;;2.47;;
29294;SDS011;16305;48.566;8.846;2022-12-22T15:15:21;10.00;;;2.30;;
29294;SDS011;16305;48.566;8.846;2022-12-22T15:17:47;12.77;;;2.90;;
29294;SDS011;16305;48.566;8.846;2022-12-22T15:20:19;7.63;;;2.33;;
29294;SDS011;16305;48.566;8.846;2022-12-22T15:22:50;10.60;;;2.23;;
29294;SDS011;16305;48.566;8.846;2022-12-22T15:25:20;12.93;;;2.40;;
29294;SDS011;16305;48.566;8.846;2022-12-22T15:27:47;6.50;;;1.70;;
29294;SDS011;16305;48.566;8.846;2022-12-22T15:30:14;12.17;;;2.60;;
29294;SDS011;16305;48.566;8.846;2022-12-22T15:32:42;9.33;;;2.33;;
29294;SDS011;16305;48.566;8.846;2022-12-22T15:37:41;9.50;;;2.37;;
29294;SDS011;16305;48.566;8.846;2022-12-22T15:40:17;11.13;;;2.80;;
29294;SDS011;16305;48.566;8.846;2022-12-22T15:42:45;11.47;;;2.80;;
29294;SDS011;16305;48.566;8.846;2022-12-22T15:45:11;11.90;;;2.43;;
29294;SDS011;16305;48.566;8.846;2022-12-22T15:47:37;16.43;;;3.60;;
29294;SDS011;16305;48.566;8.846;2022-12-22T15:50:04;14.23;;;3.67;;
29294;SDS011;16305;48.566;8.846;2022-12-22T15:52:30;14.20;;;4.13;;
29294;SDS011;16305;48.566;8.846;2022-12-22T15:54:56;19.97;;;4.10;;
29294;SDS011;16305;48.566;8.846;2022-12-22T15:57:22;10.77;;;4.23;;
29294;SDS011;16305;48.566;8.846;2022-12-22T15:59:47;18.07;;;6.60;;
29294;SDS011;16305;48.566;8.846;2022-12-22T16:02:13;24.30;;;7.10;;
29294;SDS011;16305;48.566;8.846;2022-12-22T16:04:38;21.57;;;7.77;;
29294;SDS011;16305;48.566;8.846;2022-12-22T16:07:04;27.00;;;4.53;;
29294;SDS011;16305;48.566;8.846;2022-12-22T16:09:31;16.33;;;5.03;;
29294;SDS011;16305;48.566;8.846;2022-12-22T16:12:13;18.93;;;5.43;;
29294;SDS011;16305;48.566;8.846;2022-12-22T16:14:42;19.43;;;5.93;;
29294;SDS011;16305;48.566;8.846;2022-12-22T16:17:17;15.27;;;4.67;;
29294;SDS011;16305;48.566;8.846;2022-12-22T16:19:44;14.80;;;4.07;;
29294;SDS011;16305;48.566;8.846;2022-12-22T16:22:11;20.40;;;4.33;;
29294;SDS011;16305;48.566;8.846;2022-12-22T16:24:37;13.13;;;3.60;;
29294;SDS011;16305;48.566;8.846;2022-12-22T16:27:07;17.10;;;3.97;;
29294;SDS011;16305;48.566;8.846;2022-12-22T16:29:35;16.63;;;4.40;;
29294;SDS011;16305;48.566;8.846;2022-12-22T16:32:12;18.07;;;4.13;;
29294;SDS011;16305;48.566;8.846;2022-12-22T16:34:38;26.80;;;6.30;;
29294;SDS011;16305;48.566;8.846;2022-12-22T16:37:04;27.40;;;7.00;;
29294;SDS011;16305;48.566;8.846;2022-12-22T16:39:29;25.80;;;7.13;;
29294;SDS011;16305;48.566;8.846;2022-12-22T16:41:55;34.93;;;11.80;;
29294;SDS011;16305;48.566;8.846;2022-12-22T16:44:21;33.50;;;9.67;;
29294;SDS011;16305;48.566;8.846;2022-12-22T16:46:47;27.33;;;9.03;;
29294;SDS011;16305;48.566;8.846;2022-12-22T16:49:15;25.30;;;7.77;;
29294;SDS011;16305;48.566;8.846;2022-12-22T16:51:44;20.23;;;6.80;;
29294;SDS011;16305;48.566;8.846;2022-12-22T16:54:13;24.77;;;6.97;;
29294;SDS011;16305;48.566;8.846;2022-12-22T16:56:39;20.10;;;6.27;;
29294;SDS011;16305;48.566;8.846;2022-12-22T16:59:09;20.40;;;5.63;;